Elena, Argentina
Current Conditions -  °F | °C
As of 10:00 PM on Sunday 21 Dec 2014 (Local Time) from SAOC Reporting Station
Clear Clear  
Wind Chill: 13°   Ceiling: Unl
Heat Index: 13°   Visibility: 6mi
Dew Point:   Wind: 6mph
Humidity: 54%   Direction: 270°W
Pressure: 30"   Gusts: NA
Location:  32.57°S, 64.39°W
Report Text: SAOC 220100Z 27005KT CAVOK 13/04 Q1016
Loading
Personal Weather Stations






























Interactive Weather Map New forecast layout! Learn more

10-Day Weather Forecast

Advertisements
Track Severe Weather on mobile